Time,TemperatureF,DewpointF,PressureIn,WindDirection,WindDirectionDegrees,WindSpeedMPH,WindSpeedGustMPH,Humidity,HourlyPrecipIn,Conditions,Clouds,dailyrainin,SoftwareType,DateUTC
2013-04-25 00:01:00,47.3,26.5,30.03,South,177,4.9,4.9,44,0.00,,---,0.00,VWS V14.01,2013-04-25 04:01:00,
2013-04-25 00:02:00,47.3,26.5,30.03,SSE,161,6.3,6.3,44,0.00,,---,0.00,VWS V14.01,2013-04-25 04:02:00,
2013-04-25 00:07:00,47.1,26.3,30.03,SSW,194,3.6,3.6,44,0.00,,---,0.00,VWS V14.01,2013-04-25 04:07:00,
2013-04-25 00:12:00,46.9,26.2,30.03,WSW,240,3.1,4.9,44,0.00,,---,0.00,VWS V14.01,2013-04-25 04:12:00,
2013-04-25 00:17:00,46.6,25.3,30.03,SW,233,5.8,12.3,43,0.00,,---,0.00,VWS V14.01,2013-04-25 04:17:00,
2013-04-25 00:22:00,46.4,25.7,30.03,SW,217,6.3,6.3,44,0.00,,---,0.00,VWS V14.01,2013-04-25 04:22:00,
2013-04-25 00:27:00,46.2,25.0,30.03,East,96,4.0,5.4,43,0.00,,---,0.00,VWS V14.01,2013-04-25 04:27:00,
2013-04-25 00:32:00,45.9,25.2,30.03,ESE,102,2.2,2.2,44,0.00,,---,0.00,VWS V14.01,2013-04-25 04:32:00,
2013-04-25 00:37:00,45.5,24.9,30.03,South,180,0.0,0.0,44,0.00,,---,0.00,VWS V14.01,2013-04-25 04:37:00,
2013-04-25 00:42:00,45.3,24.7,30.03,SW,221,0.0,0.0,44,0.00,,---,0.00,VWS V14.01,2013-04-25 04:42:00,
2013-04-25 00:47:00,45.0,24.4,30.03,ESE,108,0.0,0.0,44,0.00,,---,0.00,VWS V14.01,2013-04-25 04:47:00,
2013-04-25 00:52:00,44.8,24.2,30.03,NNE,26,0.0,0.0,44,0.00,,---,0.00,VWS V14.01,2013-04-25 04:52:00,
2013-04-25 00:57:00,44.8,24.8,30.03,NNE,31,0.0,0.0,45,0.00,,---,0.00,VWS V14.01,2013-04-25 04:57:00,
2013-04-25 01:02:00,44.6,24.6,30.03,SSE,160,2.7,3.1,45,0.00,,---,0.00,VWS V14.01,2013-04-25 05:02:00,
2013-04-25 01:07:00,44.6,24.6,30.03,SSE,161,0.0,0.0,45,0.00,,---,0.00,VWS V14.01,2013-04-25 05:07:00,
2013-04-25 01:12:00,44.4,25.0,30.03,SSW,206,7.6,7.6,46,0.00,,---,0.00,VWS V14.01,2013-04-25 05:12:00,
2013-04-25 01:17:00,44.4,25.0,30.03,SSW,212,3.1,4.0,46,0.00,,---,0.00,VWS V14.01,2013-04-25 05:17:00,
2013-04-25 01:22:00,44.2,24.8,30.03,SSW,212,0.0,0.0,46,0.00,,---,0.00,VWS V14.01,2013-04-25 05:22:00,
2013-04-25 01:27:00,44.1,24.6,30.03,SSW,212,0.0,0.0,46,0.00,,---,0.00,VWS V14.01,2013-04-25 05:27:00,
2013-04-25 01:32:00,43.9,25.0,30.03,SSW,208,2.2,2.2,47,0.00,,---,0.00,VWS V14.01,2013-04-25 05:32:00,
2013-04-25 01:37:00,43.5,23.6,30.03,SSW,199,3.1,3.1,45,0.00,,---,0.00,VWS V14.01,2013-04-25 05:37:00,
2013-04-25 01:42:00,43.3,22.4,30.06,SSW,201,6.3,6.3,43,0.00,,---,0.00,VWS V14.01,2013-04-25 05:42:00,
2013-04-25 01:47:00,43.0,22.0,30.06,SSW,199,6.3,8.1,43,0.00,,---,0.00,VWS V14.01,2013-04-25 05:47:00,
2013-04-25 01:52:00,42.6,21.7,30.06,South,170,4.0,4.0,43,0.00,,---,0.00,VWS V14.01,2013-04-25 05:52:00,
2013-04-25 01:57:00,42.3,21.9,30.03,WSW,241,0.0,3.6,44,0.00,,---,0.00,VWS V14.01,2013-04-25 05:57:00,
2013-04-25 02:02:00,42.1,21.8,30.03,SSW,205,4.0,4.0,44,0.00,,---,0.00,VWS V14.01,2013-04-25 06:02:00,
2013-04-25 02:07:00,41.9,21.6,30.03,SW,233,0.0,0.0,44,0.00,,---,0.00,VWS V14.01,2013-04-25 06:07:00,
2013-04-25 02:12:00,41.7,22.0,30.06,ESE,118,0.0,0.0,45,0.00,,---,0.00,VWS V14.01,2013-04-25 06:12:00,
2013-04-25 02:18:00,41.7,22.0,30.06,South,172,0.0,2.7,45,0.00,,---,0.00,VWS V14.01,2013-04-25 06:18:00,
2013-04-25 02:23:00,41.7,22.0,30.06,SSW,206,0.0,0.0,45,0.00,,---,0.00,VWS V14.01,2013-04-25 06:23:00,
2013-04-25 02:28:00,41.5,21.8,30.06,SSW,206,0.0,0.0,45,0.00,,---,0.00,VWS V14.01,2013-04-25 06:28:00,
2013-04-25 02:33:00,41.5,22.3,30.06,SW,221,0.0,0.0,46,0.00,,---,0.00,VWS V14.01,2013-04-25 06:33:00,
2013-04-25 02:38:00,41.5,22.3,30.06,SW,220,0.0,0.0,46,0.00,,---,0.00,VWS V14.01,2013-04-25 06:38:00,
2013-04-25 02:43:00,41.4,22.1,30.06,East,85,0.0,0.0,46,0.00,,---,0.00,VWS V14.01,2013-04-25 06:43:00,
2013-04-25 02:48:00,41.0,21.8,30.06,ENE,69,2.7,3.6,46,0.00,,---,0.00,VWS V14.01,2013-04-25 06:48:00,
2013-04-25 02:53:00,40.8,22.2,30.06,ESE,120,0.0,0.0,47,0.00,,---,0.00,VWS V14.01,2013-04-25 06:53:00,
2013-04-25 02:58:00,40.6,22.0,30.06,East,95,3.6,4.0,47,0.00,,---,0.00,VWS V14.01,2013-04-25 06:58:00,
2013-04-25 03:03:00,40.5,21.8,30.06,ESE,107,0.0,0.0,47,0.00,,---,0.00,VWS V14.01,2013-04-25 07:03:00,
2013-04-25 03:08:00,40.5,21.8,30.06,ESE,108,0.0,0.0,47,0.00,,---,0.00,VWS V14.01,2013-04-25 07:08:00,
2013-04-25 03:13:00,40.5,21.8,30.06,ESE,109,0.0,0.0,47,0.00,,---,0.00,VWS V14.01,2013-04-25 07:13:00,
2013-04-25 03:18:00,40.3,21.7,30.06,ENE,65,0.0,2.7,47,0.00,,---,0.00,VWS V14.01,2013-04-25 07:18:00,
2013-04-25 03:23:00,40.1,21.5,30.06,East,93,2.7,2.7,47,0.00,,---,0.00,VWS V14.01,2013-04-25 07:23:00,
2013-04-25 03:28:00,39.9,21.8,30.06,ESE,105,3.6,4.0,48,0.00,,---,0.00,VWS V14.01,2013-04-25 07:28:00,
2013-04-25 03:33:00,39.9,21.8,30.06,ENE,71,4.9,4.9,48,0.00,,---,0.00,VWS V14.01,2013-04-25 07:33:00,
2013-04-25 03:38:00,39.7,21.7,30.06,ESE,122,4.0,4.0,48,0.00,,---,0.00,VWS V14.01,2013-04-25 07:38:00,
2013-04-25 03:43:00,39.7,21.7,30.06,ESE,119,0.0,0.0,48,0.00,,---,0.00,VWS V14.01,2013-04-25 07:43:00,
2013-04-25 03:48:00,39.6,21.5,30.06,East,86,0.0,3.6,48,0.00,,---,0.00,VWS V14.01,2013-04-25 07:48:00,
2013-04-25 03:53:00,39.4,21.3,30.06,ESE,105,3.1,3.6,48,0.00,,---,0.00,VWS V14.01,2013-04-25 07:53:00,
2013-04-25 03:58:00,39.2,20.7,30.06,East,84,2.7,2.7,47,0.00,,---,0.00,VWS V14.01,2013-04-25 07:58:00,
2013-04-25 04:03:00,38.8,19.8,30.06,East,79,3.6,5.8,46,0.00,,---,0.00,VWS V14.01,2013-04-25 08:03:00,
2013-04-25 04:08:00,38.7,19.2,30.06,ESE,102,3.6,3.6,45,0.00,,---,0.00,VWS V14.01,2013-04-25 08:08:00,
2013-04-25 04:13:00,38.5,18.5,30.09,East,98,0.0,0.0,44,0.00,,---,0.00,VWS V14.01,2013-04-25 08:13:00,
2013-04-25 04:18:00,38.3,18.3,30.09,SSE,149,0.0,0.0,44,0.00,,---,0.00,VWS V14.01,2013-04-25 08:18:00,
2013-04-25 04:23:00,38.1,18.7,30.09,WSW,238,0.0,3.6,45,0.00,,---,0.00,VWS V14.01,2013-04-25 08:23:00,
2013-04-25 04:28:00,38.1,18.7,30.09,SSW,205,5.4,5.8,45,0.00,,---,0.00,VWS V14.01,2013-04-25 08:28:00,
2013-04-25 04:33:00,38.1,18.7,30.09,SSW,213,2.7,3.1,45,0.00,,---,0.00,VWS V14.01,2013-04-25 08:33:00,
2013-04-25 04:38:00,37.9,18.5,30.09,SSW,205,3.1,3.1,45,0.00,,---,0.00,VWS V14.01,2013-04-25 08:38:00,
2013-04-25 04:43:00,37.9,18.5,30.09,West,268,2.7,2.7,45,0.00,,---,0.00,VWS V14.01,2013-04-25 08:43:00,
2013-04-25 04:48:00,37.8,18.3,30.09,SSW,206,0.0,0.0,45,0.00,,---,0.00,VWS V14.01,2013-04-25 08:48:00,
2013-04-25 04:53:00,37.8,18.9,30.09,SE,140,2.7,2.7,46,0.00,,---,0.00,VWS V14.01,2013-04-25 08:53:00,
2013-04-25 04:58:00,37.6,18.2,30.09,SSE,159,2.2,2.2,45,0.00,,---,0.00,VWS V14.01,2013-04-25 08:58:00,
2013-04-25 05:03:00,37.6,18.2,30.09,SW,232,3.1,3.1,45,0.00,,---,0.00,VWS V14.01,2013-04-25 09:03:00,
2013-04-25 05:08:00,37.4,18.0,30.09,SW,216,2.2,2.7,45,0.00,,---,0.00,VWS V14.01,2013-04-25 09:08:00,
2013-04-25 05:13:00,37.4,18.0,30.09,SSW,213,0.0,0.0,45,0.00,,---,0.00,VWS V14.01,2013-04-25 09:13:00,
2013-04-25 05:18:00,37.2,17.9,30.09,South,183,0.0,0.0,45,0.00,,---,0.00,VWS V14.01,2013-04-25 09:18:00,
2013-04-25 05:23:00,37.2,17.9,30.09,SSW,195,0.0,3.1,45,0.00,,---,0.00,VWS V14.01,2013-04-25 09:23:00,
2013-04-25 05:28:00,37.0,17.7,30.09,SSW,195,0.0,0.0,45,0.00,,---,0.00,VWS V14.01,2013-04-25 09:28:00,
2013-04-25 05:33:00,36.9,17.5,30.09,South,180,0.0,0.0,45,0.00,,---,0.00,VWS V14.01,2013-04-25 09:33:00,
2013-04-25 05:38:00,36.5,17.7,30.09,South,180,0.0,0.0,46,0.00,,---,0.00,VWS V14.01,2013-04-25 09:38:00,
2013-04-25 05:43:00,36.3,18.0,30.09,SSE,156,0.0,0.0,47,0.00,,---,0.00,VWS V14.01,2013-04-25 09:43:00,
2013-04-25 05:48:00,36.1,17.9,30.09,South,181,0.0,0.0,47,0.00,,---,0.00,VWS V14.01,2013-04-25 09:48:00,
2013-04-25 05:53:00,35.8,18.0,30.09,South,180,0.0,0.0,48,0.00,,---,0.00,VWS V14.01,2013-04-25 09:53:00,
2013-04-25 05:58:00,35.6,18.3,30.12,South,180,0.0,0.0,49,0.00,,---,0.00,VWS V14.01,2013-04-25 09:58:00,
2013-04-25 06:03:00,35.4,18.6,30.12,East,85,0.0,0.0,50,0.00,,---,0.00,VWS V14.01,2013-04-25 10:03:00,
2013-04-25 06:08:00,35.4,18.6,30.12,East,85,0.0,0.0,50,0.00,,---,0.00,VWS V14.01,2013-04-25 10:08:00,
2013-04-25 06:13:00,35.1,18.8,30.09,NE,54,0.0,0.0,51,0.00,,---,0.00,VWS V14.01,2013-04-25 10:13:00,
2013-04-25 06:18:00,34.9,19.1,30.09,NE,54,0.0,0.0,52,0.00,,---,0.00,VWS V14.01,2013-04-25 10:18:00,
2013-04-25 06:23:00,34.7,18.9,30.09,NE,54,0.0,0.0,52,0.00,,---,0.00,VWS V14.01,2013-04-25 10:23:00,
2013-04-25 06:28:00,34.5,19.2,30.12,NE,54,0.0,0.0,53,0.00,,---,0.00,VWS V14.01,2013-04-25 10:28:00,
2013-04-25 06:33:00,34.5,19.6,30.12,NE,54,0.0,0.0,54,0.00,,---,0.00,VWS V14.01,2013-04-25 10:33:00,
2013-04-25 06:38:00,34.3,19.9,30.12,NE,54,0.0,0.0,55,0.00,,---,0.00,VWS V14.01,2013-04-25 10:38:00,
2013-04-25 06:43:00,34.3,20.3,30.12,NE,54,0.0,0.0,56,0.00,,---,0.00,VWS V14.01,2013-04-25 10:43:00,
2013-04-25 06:48:00,34.3,20.3,30.12,NE,54,0.0,0.0,56,0.00,,---,0.00,VWS V14.01,2013-04-25 10:48:00,
2013-04-25 06:53:00,34.3,20.3,30.12,NE,54,0.0,0.0,56,0.00,,---,0.00,VWS V14.01,2013-04-25 10:53:00,
2013-04-25 06:58:00,34.5,20.9,30.12,NE,54,0.0,0.0,57,0.00,,---,0.00,VWS V14.01,2013-04-25 10:58:00,
2013-04-25 07:03:00,34.7,20.6,30.12,NE,54,0.0,0.0,56,0.00,,---,0.00,VWS V14.01,2013-04-25 11:03:00,
2013-04-25 07:08:00,34.9,20.8,30.12,NE,54,0.0,0.0,56,0.00,,---,0.00,VWS V14.01,2013-04-25 11:08:00,
2013-04-25 07:13:00,35.1,20.5,30.12,ENE,57,0.0,0.0,55,0.00,,---,0.00,VWS V14.01,2013-04-25 11:13:00,
2013-04-25 07:18:00,35.4,19.6,30.12,ESE,106,3.1,3.6,52,0.00,,---,0.00,VWS V14.01,2013-04-25 11:18:00,
2013-04-25 07:23:00,35.6,19.3,30.12,ESE,106,0.0,0.0,51,0.00,,---,0.00,VWS V14.01,2013-04-25 11:23:00,
2013-04-25 07:28:00,35.8,19.0,30.15,ENE,75,2.7,3.1,50,0.00,,---,0.00,VWS V14.01,2013-04-25 11:28:00,
2013-04-25 07:33:00,35.8,18.5,30.15,East,85,0.0,0.0,49,0.00,,---,0.00,VWS V14.01,2013-04-25 11:33:00,
2013-04-25 07:38:00,35.8,19.0,30.15,East,85,0.0,0.0,50,0.00,,---,0.00,VWS V14.01,2013-04-25 11:38:00,
2013-04-25 07:43:00,35.6,18.8,30.15,East,85,0.0,0.0,50,0.00,,---,0.00,VWS V14.01,2013-04-25 11:43:00,
2013-04-25 07:48:00,35.6,19.3,30.15,East,85,0.0,0.0,51,0.00,,---,0.00,VWS V14.01,2013-04-25 11:48:00,
2013-04-25 07:53:00,35.6,19.3,30.15,East,85,0.0,0.0,51,0.00,,---,0.00,VWS V14.01,2013-04-25 11:53:00,
2013-04-25 07:58:00,35.6,19.7,30.15,East,85,0.0,0.0,52,0.00,,---,0.00,VWS V14.01,2013-04-25 11:58:00,
2013-04-25 08:03:00,35.8,19.4,30.15,East,85,0.0,0.0,51,0.00,,---,0.00,VWS V14.01,2013-04-25 12:03:00,
2013-04-25 08:08:00,36.1,19.8,30.15,East,85,0.0,0.0,51,0.00,,---,0.00,VWS V14.01,2013-04-25 12:08:00,
2013-04-25 08:13:00,36.3,19.5,30.15,ENE,72,0.0,0.0,50,0.00,,---,0.00,VWS V14.01,2013-04-25 12:13:00,
2013-04-25 08:18:00,36.7,19.8,30.15,ENE,72,0.0,0.0,50,0.00,,---,0.00,VWS V14.01,2013-04-25 12:18:00,
2013-04-25 08:23:00,36.7,18.9,30.15,SSW,206,4.9,4.9,48,0.00,,---,0.00,VWS V14.01,2013-04-25 12:23:00,
2013-04-25 08:28:00,36.9,18.5,30.15,SSW,206,0.0,0.0,47,0.00,,---,0.00,VWS V14.01,2013-04-25 12:28:00,
2013-04-25 08:34:00,36.9,19.0,30.15,SSW,206,0.0,0.0,48,0.00,,---,0.00,VWS V14.01,2013-04-25 12:34:00,
2013-04-25 08:39:00,36.9,18.5,30.15,SSW,213,0.0,0.0,47,0.00,,---,0.00,VWS V14.01,2013-04-25 12:39:00,
2013-04-25 08:44:00,37.0,17.7,30.18,SSW,213,0.0,0.0,45,0.00,,---,0.00,VWS V14.01,2013-04-25 12:44:00,
2013-04-25 08:49:00,37.2,17.9,30.18,ENE,61,0.0,0.0,45,0.00,,---,0.00,VWS V14.01,2013-04-25 12:49:00,
2013-04-25 08:54:00,37.4,17.5,30.18,SW,222,0.0,0.0,44,0.00,,---,0.00,VWS V14.01,2013-04-25 12:54:00,
2013-04-25 08:59:00,37.4,17.5,30.18,SW,222,0.0,0.0,44,0.00,,---,0.00,VWS V14.01,2013-04-25 12:59:00,
2013-04-25 09:04:00,37.6,17.1,30.18,SW,222,0.0,0.0,43,0.00,,---,0.00,VWS V14.01,2013-04-25 13:04:00,
2013-04-25 09:09:00,37.9,18.0,30.18,SW,222,0.0,0.0,44,0.00,,---,0.00,VWS V14.01,2013-04-25 13:09:00,
2013-04-25 09:14:00,38.3,17.8,30.18,NNW,345,0.0,2.7,43,0.00,,---,0.00,VWS V14.01,2013-04-25 13:14:00,
2013-04-25 09:19:00,38.7,18.1,30.18,SSW,209,3.1,4.0,43,0.00,,---,0.00,VWS V14.01,2013-04-25 13:19:00,
2013-04-25 09:24:00,38.8,17.2,30.18,NW,306,2.7,2.7,41,0.00,,---,0.00,VWS V14.01,2013-04-25 13:24:00,
2013-04-25 09:29:00,39.2,17.5,30.18,SW,225,4.0,6.3,41,0.00,,---,0.00,VWS V14.01,2013-04-25 13:29:00,
2013-04-25 09:34:00,39.0,17.3,30.18,SW,236,2.7,2.7,41,0.00,,---,0.00,VWS V14.01,2013-04-25 13:34:00,
2013-04-25 09:39:00,38.8,16.6,30.18,SW,236,0.0,0.0,40,0.00,,---,0.00,VWS V14.01,2013-04-25 13:39:00,
2013-04-25 09:44:00,39.0,17.3,30.18,SW,236,0.0,0.0,41,0.00,,---,0.00,VWS V14.01,2013-04-25 13:44:00,
2013-04-25 09:49:00,39.2,16.9,30.18,SW,236,0.0,0.0,40,0.00,,---,0.00,VWS V14.01,2013-04-25 13:49:00,
2013-04-25 09:54:00,39.4,17.1,30.18,West,265,0.0,0.0,40,0.00,,---,0.00,VWS V14.01,2013-04-25 13:54:00,
2013-04-25 09:59:00,39.9,17.6,30.18,SE,129,0.0,0.0,40,0.00,,---,0.00,VWS V14.01,2013-04-25 13:59:00,
2013-04-25 10:04:00,40.3,17.9,30.18,West,279,2.2,2.7,40,0.00,,---,0.00,VWS V14.01,2013-04-25 14:04:00,
2013-04-25 10:09:00,40.8,17.8,30.18,ESE,117,2.7,2.7,39,0.00,,---,0.00,VWS V14.01,2013-04-25 14:09:00,
2013-04-25 10:14:00,41.2,18.1,30.18,SSW,198,4.0,4.0,39,0.00,,---,0.00,VWS V14.01,2013-04-25 14:14:00,
2013-04-25 10:19:00,41.4,17.7,30.18,SSW,213,3.6,3.6,38,0.00,,---,0.00,VWS V14.01,2013-04-25 14:19:00,
2013-04-25 10:24:00,41.5,17.8,30.18,SSE,168,0.0,2.7,38,0.00,,---,0.00,VWS V14.01,2013-04-25 14:24:00,
2013-04-25 10:29:00,42.1,18.3,30.18,SW,233,6.3,6.3,38,0.00,,---,0.00,VWS V14.01,2013-04-25 14:29:00,
2013-04-25 10:34:00,42.4,18.6,30.18,WSW,246,6.3,6.3,38,0.00,,---,0.00,VWS V14.01,2013-04-25 14:34:00,
2013-04-25 10:39:00,42.8,19.0,30.18,South,190,2.7,3.1,38,0.00,,---,0.00,VWS V14.01,2013-04-25 14:39:00,
2013-04-25 10:44:00,43.5,17.7,30.18,WSW,239,0.0,0.0,35,0.00,,---,0.00,VWS V14.01,2013-04-25 14:44:00,
2013-04-25 10:49:00,44.2,20.3,30.18,WSW,253,4.9,4.9,38,0.00,,---,0.00,VWS V14.01,2013-04-25 14:49:00,
2013-04-25 10:54:00,45.1,19.1,30.18,SSE,163,0.0,0.0,35,0.00,,---,0.00,VWS V14.01,2013-04-25 14:54:00,
2013-04-25 10:59:00,45.7,19.6,30.18,WSW,239,2.7,3.1,35,0.00,,---,0.00,VWS V14.01,2013-04-25 14:59:00,
2013-04-25 11:04:00,46.2,20.1,30.18,NE,43,2.7,2.7,35,0.00,,---,0.00,VWS V14.01,2013-04-25 15:04:00,
2013-04-25 11:09:00,46.6,18.3,30.18,East,98,0.0,0.0,32,0.00,,---,0.00,VWS V14.01,2013-04-25 15:09:00,
2013-04-25 11:14:00,46.4,17.4,30.18,ENE,71,3.6,3.6,31,0.00,,---,0.00,VWS V14.01,2013-04-25 15:14:00,
2013-04-25 11:19:00,46.8,17.7,30.18,East,91,3.1,3.1,31,0.00,,---,0.00,VWS V14.01,2013-04-25 15:19:00,
2013-04-25 11:24:00,47.3,17.5,30.18,SSW,194,2.2,3.1,30,0.00,,---,0.00,VWS V14.01,2013-04-25 15:24:00,
2013-04-25 11:29:00,47.8,18.7,30.18,North,353,0.0,0.0,31,0.00,,---,0.00,VWS V14.01,2013-04-25 15:29:00,
2013-04-25 11:34:00,48.4,16.8,30.18,SSW,201,5.8,7.6,28,0.00,,---,0.00,VWS V14.01,2013-04-25 15:34:00,
2013-04-25 11:39:00,48.2,16.6,30.18,SSE,165,2.2,3.1,28,0.00,,---,0.00,VWS V14.01,2013-04-25 15:39:00,
2013-04-25 11:44:00,48.4,16.8,30.18,South,173,4.0,4.0,28,0.00,,---,0.00,VWS V14.01,2013-04-25 15:44:00,
2013-04-25 11:49:00,48.6,17.8,30.18,WSW,243,7.6,8.1,29,0.00,,---,0.00,VWS V14.01,2013-04-25 15:49:00,
2013-04-25 11:54:00,48.7,17.9,30.18,SSE,149,0.0,0.0,29,0.00,,---,0.00,VWS V14.01,2013-04-25 15:54:00,
2013-04-25 11:59:00,48.9,17.3,30.18,SW,235,3.6,5.4,28,0.00,,---,0.00,VWS V14.01,2013-04-25 15:59:00,
2013-04-25 12:04:00,49.5,17.7,30.18,NNE,27,0.0,0.0,28,0.00,,---,0.00,VWS V14.01,2013-04-25 16:04:00,
2013-04-25 12:09:00,49.8,18.0,30.18,SSW,194,3.6,4.9,28,0.00,,---,0.00,VWS V14.01,2013-04-25 16:09:00,
2013-04-25 12:14:00,50.2,18.4,30.18,SW,221,8.1,8.1,28,0.00,,---,0.00,VWS V14.01,2013-04-25 16:14:00,
2013-04-25 12:19:00,50.2,17.5,30.18,SSE,168,0.0,0.0,27,0.00,,---,0.00,VWS V14.01,2013-04-25 16:19:00,
2013-04-25 12:24:00,50.7,18.8,30.18,North,9,2.2,4.0,28,0.00,,---,0.00,VWS V14.01,2013-04-25 16:24:00,
2013-04-25 12:29:00,50.9,18.1,30.18,SSW,197,5.8,5.8,27,0.00,,---,0.00,VWS V14.01,2013-04-25 16:29:00,
2013-04-25 12:34:00,50.9,18.1,30.18,SW,225,5.4,5.4,27,0.00,,---,0.00,VWS V14.01,2013-04-25 16:34:00,
2013-04-25 12:39:00,51.1,18.3,30.18,South,183,6.3,8.3,27,0.00,,---,0.00,VWS V14.01,2013-04-25 16:39:00,
2013-04-25 12:44:00,51.6,18.8,30.18,WSW,251,3.6,3.6,27,0.00,,---,0.00,VWS V14.01,2013-04-25 16:44:00,
2013-04-25 12:49:00,51.8,18.9,30.18,SW,223,5.4,5.4,27,0.00,,---,0.00,VWS V14.01,2013-04-25 16:49:00,
2013-04-25 12:54:00,51.8,18.0,30.18,South,178,8.1,8.7,26,0.00,,---,0.00,VWS V14.01,2013-04-25 16:54:00,
2013-04-25 12:59:00,52.2,19.2,30.18,WSW,238,4.9,5.8,27,0.00,,---,0.00,VWS V14.01,2013-04-25 16:59:00,
2013-04-25 13:04:00,52.9,19.8,30.18,ENE,78,2.2,3.6,27,0.00,,---,0.00,VWS V14.01,2013-04-25 17:04:00,
2013-04-25 13:09:00,53.6,19.6,30.18,WSW,247,2.2,2.7,26,0.00,,---,0.00,VWS V14.01,2013-04-25 17:09:00,
2013-04-25 13:14:00,53.8,19.7,30.18,SW,228,5.8,5.8,26,0.00,,---,0.00,VWS V14.01,2013-04-25 17:14:00,
2013-04-25 13:19:00,54.0,19.9,30.18,SW,227,8.3,8.3,26,0.00,,---,0.00,VWS V14.01,2013-04-25 17:19:00,
2013-04-25 13:24:00,54.0,19.9,30.18,SSE,148,3.6,5.4,26,0.00,,---,0.00,VWS V14.01,2013-04-25 17:24:00,
2013-04-25 13:29:00,54.1,20.0,30.18,SSW,200,4.9,5.8,26,0.00,,---,0.00,VWS V14.01,2013-04-25 17:29:00,
2013-04-25 13:34:00,54.5,20.3,30.18,West,260,3.1,3.6,26,0.00,,---,0.00,VWS V14.01,2013-04-25 17:34:00,
2013-04-25 13:39:00,54.9,20.6,30.18,WSW,250,5.4,6.3,26,0.00,,---,0.00,VWS V14.01,2013-04-25 17:39:00,
2013-04-25 13:44:00,55.6,20.3,30.18,SSW,198,3.6,4.5,25,0.00,,---,0.00,VWS V14.01,2013-04-25 17:44:00,
2013-04-25 13:49:00,55.6,20.3,30.18,ESE,118,0.0,2.7,25,0.00,,---,0.00,VWS V14.01,2013-04-25 17:49:00,
2013-04-25 13:54:00,55.9,20.6,30.18,West,260,3.6,5.8,25,0.00,,---,0.00,VWS V14.01,2013-04-25 17:54:00,
2013-04-25 13:59:00,55.9,20.6,30.18,SSW,209,8.3,8.3,25,0.00,,---,0.00,VWS V14.01,2013-04-25 17:59:00,
2013-04-25 14:04:00,55.9,20.6,30.18,WNW,299,5.4,6.3,25,0.00,,---,0.00,VWS V14.01,2013-04-25 18:04:00,
2013-04-25 14:09:00,56.3,21.0,30.18,SW,234,5.4,8.3,25,0.00,,---,0.00,VWS V14.01,2013-04-25 18:09:00,
2013-04-25 14:14:00,56.7,21.3,30.15,SW,224,2.7,3.6,25,0.00,,---,0.00,VWS V14.01,2013-04-25 18:14:00,
2013-04-25 14:20:00,57.2,18.7,30.15,SW,221,6.3,10.1,22,0.00,,---,0.00,VWS V14.01,2013-04-25 18:20:00,
2013-04-25 14:25:00,57.0,21.6,30.15,WSW,243,3.1,6.3,25,0.00,,---,0.00,VWS V14.01,2013-04-25 18:25:00,
2013-04-25 14:30:00,57.0,18.6,30.15,SSW,208,0.0,3.6,22,0.00,,---,0.00,VWS V14.01,2013-04-25 18:30:00,
2013-04-25 14:35:00,57.6,19.0,30.15,West,267,4.9,4.9,22,0.00,,---,0.00,VWS V14.01,2013-04-25 18:35:00,
2013-04-25 14:40:00,58.3,19.6,30.15,SSW,207,6.3,7.6,22,0.00,,---,0.00,VWS V14.01,2013-04-25 18:40:00,
2013-04-25 14:45:00,58.6,22.0,30.12,WSW,254,2.7,2.7,24,0.00,,---,0.00,VWS V14.01,2013-04-25 18:45:00,
2013-04-25 14:50:00,58.8,16.7,30.12,SE,144,3.1,3.1,19,0.00,,---,0.00,VWS V14.01,2013-04-25 18:50:00,
2013-04-25 14:55:00,59.0,16.8,30.12,SW,233,8.1,8.1,19,0.00,,---,0.00,VWS V14.01,2013-04-25 18:55:00,
2013-04-25 15:00:00,58.6,19.9,30.15,NNE,19,2.7,2.7,22,0.00,,---,0.00,VWS V14.01,2013-04-25 19:00:00,
2013-04-25 15:05:00,59.0,16.8,30.15,WSW,238,3.1,3.6,19,0.00,,---,0.00,VWS V14.01,2013-04-25 19:05:00,
2013-04-25 15:10:00,59.4,17.1,30.15,WSW,254,5.4,5.8,19,0.00,,---,0.00,VWS V14.01,2013-04-25 19:10:00,
2013-04-25 15:15:00,59.9,17.6,30.12,SW,215,7.6,7.6,19,0.00,,---,0.00,VWS V14.01,2013-04-25 19:15:00,
2013-04-25 15:20:00,60.1,21.1,30.12,SW,232,5.8,5.8,22,0.00,,---,0.00,VWS V14.01,2013-04-25 19:20:00,
2013-04-25 15:25:00,60.8,18.3,30.12,NE,50,0.0,2.7,19,0.00,,---,0.00,VWS V14.01,2013-04-25 19:25:00,
2013-04-25 15:30:00,61.5,18.9,30.12,SW,234,3.6,4.0,19,0.00,,---,0.00,VWS V14.01,2013-04-25 19:30:00,
2013-04-25 15:35:00,60.6,18.2,30.12,WSW,247,0.0,2.2,19,0.00,,---,0.00,VWS V14.01,2013-04-25 19:35:00,
2013-04-25 15:40:00,60.4,18.0,30.12,WSW,243,5.8,6.3,19,0.00,,---,0.00,VWS V14.01,2013-04-25 19:40:00,
2013-04-25 15:45:00,60.6,18.2,30.12,SW,233,2.2,2.2,19,0.00,,---,0.00,VWS V14.01,2013-04-25 19:45:00,
2013-04-25 15:50:00,61.0,18.5,30.12,WSW,243,7.6,7.6,19,0.00,,---,0.00,VWS V14.01,2013-04-25 19:50:00,
2013-04-25 15:55:00,61.3,14.8,30.12,WSW,237,6.3,7.2,16,0.00,,---,0.00,VWS V14.01,2013-04-25 19:55:00,
2013-04-25 16:00:00,60.8,18.3,30.12,West,269,0.0,4.0,19,0.00,,---,0.00,VWS V14.01,2013-04-25 20:00:00,
2013-04-25 16:05:00,61.2,18.6,30.12,SW,236,5.8,5.8,19,0.00,,---,0.00,VWS V14.01,2013-04-25 20:05:00,
2013-04-25 16:10:00,61.3,14.8,30.12,SW,231,4.0,6.3,16,0.00,,---,0.00,VWS V14.01,2013-04-25 20:10:00,
2013-04-25 16:15:00,61.5,14.9,30.12,WSW,253,5.8,5.8,16,0.00,,---,0.00,VWS V14.01,2013-04-25 20:15:00,
2013-04-25 16:20:00,60.8,14.4,30.12,WSW,239,5.8,5.8,16,0.00,,---,0.00,VWS V14.01,2013-04-25 20:20:00,
2013-04-25 16:25:00,61.2,14.6,30.12,SSW,193,4.0,4.0,16,0.00,,---,0.00,VWS V14.01,2013-04-25 20:25:00,
2013-04-25 16:30:00,61.7,15.1,30.12,SW,227,4.9,5.8,16,0.00,,---,0.00,VWS V14.01,2013-04-25 20:30:00,
2013-04-25 16:35:00,61.7,15.1,30.12,SW,229,5.8,5.8,16,0.00,,---,0.00,VWS V14.01,2013-04-25 20:35:00,
2013-04-25 16:40:00,62.2,15.5,30.12,SSW,203,5.4,5.8,16,0.00,,---,0.00,VWS V14.01,2013-04-25 20:40:00,
2013-04-25 16:45:00,62.4,15.7,30.12,South,187,3.6,4.9,16,0.00,,---,0.00,VWS V14.01,2013-04-25 20:45:00,
2013-04-25 16:50:00,61.9,15.2,30.12,SSE,158,5.4,8.3,16,0.00,,---,0.00,VWS V14.01,2013-04-25 20:50:00,
2013-04-25 16:55:00,62.1,15.4,30.12,SW,235,6.3,6.3,16,0.00,,---,0.00,VWS V14.01,2013-04-25 20:55:00,
2013-04-25 17:00:00,61.9,15.2,30.12,WSW,243,5.8,5.8,16,0.00,,---,0.00,VWS V14.01,2013-04-25 21:00:00,
2013-04-25 17:05:00,61.7,15.1,30.12,SW,233,11.0,11.0,16,0.00,,---,0.00,VWS V14.01,2013-04-25 21:05:00,
2013-04-25 17:10:00,61.2,14.6,30.12,SW,230,6.3,7.6,16,0.00,,---,0.00,VWS V14.01,2013-04-25 21:10:00,
2013-04-25 17:15:00,61.2,14.6,30.12,SW,226,7.6,7.6,16,0.00,,---,0.00,VWS V14.01,2013-04-25 21:15:00,
2013-04-25 17:20:00,61.5,14.9,30.12,SW,222,5.4,5.4,16,0.00,,---,0.00,VWS V14.01,2013-04-25 21:20:00,
2013-04-25 17:25:00,61.7,15.1,30.12,SSW,212,2.7,5.4,16,0.00,,---,0.00,VWS V14.01,2013-04-25 21:25:00,
2013-04-25 17:30:00,61.9,15.2,30.12,WSW,243,2.2,3.6,16,0.00,,---,0.00,VWS V14.01,2013-04-25 21:30:00,
2013-04-25 17:35:00,62.6,15.8,30.12,SW,235,5.4,5.4,16,0.00,,---,0.00,VWS V14.01,2013-04-25 21:35:00,
2013-04-25 17:40:00,62.2,15.5,30.12,SW,223,5.4,8.3,16,0.00,,---,0.00,VWS V14.01,2013-04-25 21:40:00,
2013-04-25 17:45:00,61.7,15.1,30.12,South,183,6.3,6.3,16,0.00,,---,0.00,VWS V14.01,2013-04-25 21:45:00,
2013-04-25 17:50:00,61.5,14.9,30.12,SW,231,8.3,8.3,16,0.00,,---,0.00,VWS V14.01,2013-04-25 21:50:00,
2013-04-25 17:55:00,61.7,15.1,30.12,SW,231,5.4,8.7,16,0.00,,---,0.00,VWS V14.01,2013-04-25 21:55:00,
2013-04-25 18:00:00,61.7,19.0,30.12,SW,226,4.0,4.9,19,0.00,,---,0.00,VWS V14.01,2013-04-25 22:00:00,
2013-04-25 18:05:00,62.1,15.4,30.12,SE,139,3.1,4.0,16,0.00,,---,0.00,VWS V14.01,2013-04-25 22:05:00,
2013-04-25 18:10:00,61.9,15.2,30.12,WSW,238,2.7,4.0,16,0.00,,---,0.00,VWS V14.01,2013-04-25 22:10:00,
2013-04-25 18:15:00,61.9,15.2,30.12,SSW,212,6.3,6.3,16,0.00,,---,0.00,VWS V14.01,2013-04-25 22:15:00,
2013-04-25 18:20:00,61.5,14.9,30.12,South,170,7.6,7.6,16,0.00,,---,0.00,VWS V14.01,2013-04-25 22:20:00,
2013-04-25 18:26:00,61.3,14.8,30.12,SSW,194,4.9,6.3,16,0.00,,---,0.00,VWS V14.01,2013-04-25 22:26:00,
2013-04-25 18:31:00,61.3,14.8,30.12,SSW,213,5.4,7.2,16,0.00,,---,0.00,VWS V14.01,2013-04-25 22:31:00,
2013-04-25 18:36:00,60.8,14.4,30.12,WSW,246,2.7,5.8,16,0.00,,---,0.00,VWS V14.01,2013-04-25 22:36:00,
2013-04-25 18:41:00,60.3,15.3,30.12,SSW,202,6.3,6.3,17,0.00,,---,0.00,VWS V14.01,2013-04-25 22:41:00,
2013-04-25 18:46:00,59.7,14.9,30.12,WSW,250,4.0,5.8,17,0.00,,---,0.00,VWS V14.01,2013-04-25 22:46:00,
2013-04-25 18:51:00,59.2,14.4,30.12,SSW,205,4.0,7.6,17,0.00,,---,0.00,VWS V14.01,2013-04-25 22:51:00,
2013-04-25 18:56:00,58.8,14.1,30.12,SSW,196,4.0,4.0,17,0.00,,---,0.00,VWS V14.01,2013-04-25 22:56:00,
2013-04-25 19:01:00,58.8,14.1,30.12,South,187,5.4,8.1,17,0.00,,---,0.00,VWS V14.01,2013-04-25 23:01:00,
2013-04-25 19:06:00,58.5,13.8,30.12,South,191,4.0,5.8,17,0.00,,---,0.00,VWS V14.01,2013-04-25 23:06:00,
2013-04-25 19:11:00,58.1,13.5,30.12,SW,229,4.9,4.9,17,0.00,,---,0.00,VWS V14.01,2013-04-25 23:11:00,
2013-04-25 19:16:00,57.9,13.4,30.12,South,182,5.4,5.4,17,0.00,,---,0.00,VWS V14.01,2013-04-25 23:16:00,
2013-04-25 19:21:00,57.6,13.1,30.12,South,190,2.7,5.4,17,0.00,,---,0.00,VWS V14.01,2013-04-25 23:21:00,
2013-04-25 19:26:00,57.4,12.9,30.12,SW,224,4.0,8.1,17,0.00,,---,0.00,VWS V14.01,2013-04-25 23:26:00,
2013-04-25 19:31:00,57.2,12.8,30.12,SW,224,0.0,0.0,17,0.00,,---,0.00,VWS V14.01,2013-04-25 23:31:00,
2013-04-25 19:36:00,56.7,12.4,30.12,ENE,64,0.0,0.0,17,0.00,,---,0.00,VWS V14.01,2013-04-25 23:36:00,
2013-04-25 19:41:00,56.1,11.9,30.12,South,183,3.1,3.1,17,0.00,,---,0.00,VWS V14.01,2013-04-25 23:41:00,
2013-04-25 19:46:00,55.9,11.8,30.15,SSE,152,5.8,5.8,17,0.00,,---,0.00,VWS V14.01,2013-04-25 23:46:00,
2013-04-25 19:51:00,55.4,11.3,30.15,SE,145,4.0,4.9,17,0.00,,---,0.00,VWS V14.01,2013-04-25 23:51:00,
2013-04-25 19:56:00,54.7,12.0,30.15,SE,145,0.0,0.0,18,0.00,,---,0.00,VWS V14.01,2013-04-25 23:56:00,
2013-04-25 20:01:00,54.0,11.4,30.15,ESE,114,0.0,0.0,18,0.00,,---,0.00,VWS V14.01,2013-04-26 00:01:00,
2013-04-25 20:06:00,53.1,10.7,30.15,ESE,111,0.0,0.0,18,0.00,,---,0.00,VWS V14.01,2013-04-26 00:06:00,
2013-04-25 20:11:00,52.3,10.1,30.15,NNE,14,2.2,2.2,18,0.00,,---,0.00,VWS V14.01,2013-04-26 00:11:00,
2013-04-25 20:16:00,51.6,10.7,30.15,NNE,21,0.0,0.0,19,0.00,,---,0.00,VWS V14.01,2013-04-26 00:16:00,
2013-04-25 20:21:00,51.3,10.4,30.15,NE,35,0.0,0.0,19,0.00,,---,0.00,VWS V14.01,2013-04-26 00:21:00,
2013-04-25 20:26:00,50.5,9.8,30.15,NE,48,0.0,0.0,19,0.00,,---,0.00,VWS V14.01,2013-04-26 00:26:00,
2013-04-25 20:31:00,50.0,9.4,30.15,NE,45,2.7,3.1,19,0.00,,---,0.00,VWS V14.01,2013-04-26 00:31:00,
2013-04-25 20:36:00,49.5,11.2,30.15,NE,50,2.7,2.7,21,0.00,,---,0.00,VWS V14.01,2013-04-26 00:36:00,
2013-04-25 20:41:00,49.5,8.9,30.18,NE,55,2.7,2.7,19,0.00,,---,0.00,VWS V14.01,2013-04-26 00:41:00,
2013-04-25 20:46:00,49.8,9.2,30.18,NE,55,0.0,0.0,19,0.00,,---,0.00,VWS V14.01,2013-04-26 00:46:00,
2013-04-25 20:51:00,49.6,11.3,30.18,NE,56,2.7,3.1,21,0.00,,---,0.00,VWS V14.01,2013-04-26 00:51:00,
2013-04-25 20:56:00,49.5,11.2,30.18,NNE,32,0.0,0.0,21,0.00,,---,0.00,VWS V14.01,2013-04-26 00:56:00,
2013-04-25 21:01:00,49.3,11.0,30.18,NNE,21,0.0,2.7,21,0.00,,---,0.00,VWS V14.01,2013-04-26 01:01:00,
2013-04-25 21:06:00,49.3,11.0,30.18,NNE,24,0.0,0.0,21,0.00,,---,0.00,VWS V14.01,2013-04-26 01:06:00,
2013-04-25 21:11:00,48.9,10.7,30.18,East,92,2.7,2.7,21,0.00,,---,0.00,VWS V14.01,2013-04-26 01:11:00,
2013-04-25 21:16:00,48.4,10.3,30.18,ENE,75,2.7,2.7,21,0.00,,---,0.00,VWS V14.01,2013-04-26 01:16:00,
2013-04-25 21:21:00,48.0,11.0,30.18,NE,36,2.7,2.7,22,0.00,,---,0.00,VWS V14.01,2013-04-26 01:21:00,
2013-04-25 21:26:00,47.7,12.7,30.18,NE,54,2.2,2.7,24,0.00,,---,0.00,VWS V14.01,2013-04-26 01:26:00,
2013-04-25 21:31:00,47.3,12.4,30.21,NE,49,3.1,3.1,24,0.00,,---,0.00,VWS V14.01,2013-04-26 01:31:00,
2013-04-25 21:36:00,47.3,12.4,30.21,NE,56,2.7,3.1,24,0.00,,---,0.00,VWS V14.01,2013-04-26 01:36:00,
2013-04-25 21:41:00,47.3,12.4,30.21,NE,37,2.7,2.7,24,0.00,,---,0.00,VWS V14.01,2013-04-26 01:41:00,
2013-04-25 21:46:00,47.1,12.2,30.21,NE,37,0.0,0.0,24,0.00,,---,0.00,VWS V14.01,2013-04-26 01:46:00,
2013-04-25 21:51:00,46.8,14.6,30.21,NE,47,0.0,2.2,27,0.00,,---,0.00,VWS V14.01,2013-04-26 01:51:00,
2013-04-25 21:56:00,46.6,14.4,30.21,NE,47,2.7,2.7,27,0.00,,---,0.00,VWS V14.01,2013-04-26 01:56:00,
2013-04-25 22:01:00,46.2,14.1,30.21,NE,47,0.0,0.0,27,0.00,,---,0.00,VWS V14.01,2013-04-26 02:01:00,
2013-04-25 22:06:00,46.2,14.1,30.21,NE,43,0.0,0.0,27,0.00,,---,0.00,VWS V14.01,2013-04-26 02:06:00,
2013-04-25 22:11:00,46.0,13.9,30.21,NE,42,2.7,3.1,27,0.00,,---,0.00,VWS V14.01,2013-04-26 02:11:00,
2013-04-25 22:16:00,45.9,14.6,30.21,NE,40,0.0,0.0,28,0.00,,---,0.00,VWS V14.01,2013-04-26 02:16:00,
2013-04-25 22:21:00,45.7,14.5,30.21,NE,43,2.7,2.7,28,0.00,,---,0.00,VWS V14.01,2013-04-26 02:21:00,
2013-04-25 22:30:00,45.3,14.1,30.21,NE,42,2.7,3.1,28,0.00,,---,0.00,VWS V14.01,2013-04-26 02:30:00,
2013-04-25 22:35:00,45.3,14.1,30.21,NE,42,2.7,2.7,28,0.00,,---,0.00,VWS V14.01,2013-04-26 02:35:00,
2013-04-25 22:40:00,45.0,13.8,30.21,NE,42,2.2,2.2,28,0.00,,---,0.00,VWS V14.01,2013-04-26 02:40:00,
2013-04-25 22:45:00,45.0,13.8,30.24,NE,42,2.2,2.7,28,0.00,,---,0.00,VWS V14.01,2013-04-26 02:45:00,
2013-04-25 22:50:00,45.0,13.8,30.24,NE,46,2.7,3.1,28,0.00,,---,0.00,VWS V14.01,2013-04-26 02:50:00,
2013-04-25 22:55:00,45.0,13.8,30.24,NE,40,0.0,2.7,28,0.00,,---,0.00,VWS V14.01,2013-04-26 02:55:00,
2013-04-25 23:00:00,44.8,13.7,30.21,NE,42,2.2,3.1,28,0.00,,---,0.00,VWS V14.01,2013-04-26 03:00:00,
2013-04-25 23:05:00,45.0,13.8,30.21,NNE,26,3.1,3.1,28,0.00,,---,0.00,VWS V14.01,2013-04-26 03:05:00,
2013-04-25 23:10:00,44.8,13.7,30.21,NE,39,2.7,2.7,28,0.00,,---,0.00,VWS V14.01,2013-04-26 03:10:00,
2013-04-25 23:15:00,44.8,13.7,30.24,NE,39,3.1,3.1,28,0.00,,---,0.00,VWS V14.01,2013-04-26 03:15:00,
2013-04-25 23:20:00,45.0,13.8,30.24,NE,39,2.7,2.7,28,0.00,,---,0.00,VWS V14.01,2013-04-26 03:20:00,
2013-04-25 23:25:00,44.8,13.7,30.24,NE,39,3.1,3.1,28,0.00,,---,0.00,VWS V14.01,2013-04-26 03:25:00,
2013-04-25 23:30:00,44.8,13.7,30.24,NE,39,2.7,2.7,28,0.00,,---,0.00,VWS V14.01,2013-04-26 03:30:00,
2013-04-25 23:35:00,44.6,14.3,30.24,NE,39,3.1,3.1,29,0.00,,---,0.00,VWS V14.01,2013-04-26 03:35:00,
2013-04-25 23:40:00,44.4,14.2,30.24,NE,39,2.7,2.7,29,0.00,,---,0.00,VWS V14.01,2013-04-26 03:40:00,
2013-04-25 23:45:00,44.4,14.2,30.21,NE,39,2.7,2.7,29,0.00,,---,0.00,VWS V14.01,2013-04-26 03:45:00,
2013-04-25 23:50:00,44.2,14.0,30.21,NE,39,2.2,2.7,29,0.00,,---,0.00,VWS V14.01,2013-04-26 03:50:00,
2013-04-25 23:55:00,44.1,13.9,30.21,NE,39,2.7,2.7,29,0.00,,---,0.00,VWS V14.01,2013-04-26 03:55:00,